sensor_id;sensor_type;location;lat;lon;timestamp;P1;durP1;ratioP1;P2;durP2;ratioP2
46457;SDS011;32155;54.076;12.092;2023-03-30T00:00:10;19.35;;;13.27;;
46457;SDS011;32155;54.076;12.092;2023-03-30T00:02:47;18.23;;;14.15;;
46457;SDS011;32155;54.076;12.092;2023-03-30T00:05:14;22.08;;;14.60;;
46457;SDS011;32155;54.076;12.092;2023-03-30T00:07:43;21.60;;;14.05;;
46457;SDS011;32155;54.076;12.092;2023-03-30T00:10:16;22.27;;;14.25;;
46457;SDS011;32155;54.076;12.092;2023-03-30T00:12:43;18.88;;;14.20;;
46457;SDS011;32155;54.076;12.092;2023-03-30T00:15:12;20.20;;;14.02;;
46457;SDS011;32155;54.076;12.092;2023-03-30T00:17:39;18.17;;;14.05;;
46457;SDS011;32155;54.076;12.092;2023-03-30T00:20:05;21.10;;;14.88;;
46457;SDS011;32155;54.076;12.092;2023-03-30T00:22:35;20.13;;;14.20;;
46457;SDS011;32155;54.076;12.092;2023-03-30T00:25:05;23.00;;;14.57;;
46457;SDS011;32155;54.076;12.092;2023-03-30T00:27:33;18.13;;;14.23;;
46457;SDS011;32155;54.076;12.092;2023-03-30T00:30:00;20.73;;;14.38;;
46457;SDS011;32155;54.076;12.092;2023-03-30T00:32:26;19.73;;;14.60;;
46457;SDS011;32155;54.076;12.092;2023-03-30T00:34:56;22.33;;;13.93;;
46457;SDS011;32155;54.076;12.092;2023-03-30T00:37:22;22.58;;;14.73;;
46457;SDS011;32155;54.076;12.092;2023-03-30T00:39:47;24.85;;;15.38;;
46457;SDS011;32155;54.076;12.092;2023-03-30T00:42:16;17.48;;;13.93;;
46457;SDS011;32155;54.076;12.092;2023-03-30T00:48:04;24.52;;;14.35;;
46457;SDS011;32155;54.076;12.092;2023-03-30T00:50:29;20.52;;;14.60;;
46457;SDS011;32155;54.076;12.092;2023-03-30T00:52:59;19.38;;;14.18;;
46457;SDS011;32155;54.076;12.092;2023-03-30T00:55:28;20.02;;;14.38;;
46457;SDS011;32155;54.076;12.092;2023-03-30T00:57:55;22.52;;;14.40;;
46457;SDS011;32155;54.076;12.092;2023-03-30T01:00:21;23.42;;;15.57;;
46457;SDS011;32155;54.076;12.092;2023-03-30T01:02:49;21.38;;;15.13;;
46457;SDS011;32155;54.076;12.092;2023-03-30T01:05:22;21.05;;;15.27;;
46457;SDS011;32155;54.076;12.092;2023-03-30T01:07:50;20.63;;;15.65;;
46457;SDS011;32155;54.076;12.092;2023-03-30T01:10:16;20.67;;;15.82;;
46457;SDS011;32155;54.076;12.092;2023-03-30T01:12:42;26.42;;;17.10;;
46457;SDS011;32155;54.076;12.092;2023-03-30T01:15:09;23.45;;;15.25;;
46457;SDS011;32155;54.076;12.092;2023-03-30T01:17:57;25.02;;;17.08;;
46457;SDS011;32155;54.076;12.092;2023-03-30T01:37:13;23.33;;;17.13;;
46457;SDS011;32155;54.076;12.092;2023-03-30T01:39:49;25.13;;;17.42;;
46457;SDS011;32155;54.076;12.092;2023-03-30T01:47:49;25.67;;;19.33;;
46457;SDS011;32155;54.076;12.092;2023-03-30T01:50:25;24.85;;;19.23;;
46457;SDS011;32155;54.076;12.092;2023-03-30T01:53:23;27.00;;;19.20;;
46457;SDS011;32155;54.076;12.092;2023-03-30T01:58:40;27.98;;;19.45;;
46457;SDS011;32155;54.076;12.092;2023-03-30T02:01:12;25.27;;;19.45;;
46457;SDS011;32155;54.076;12.092;2023-03-30T02:03:42;27.15;;;20.48;;
46457;SDS011;32155;54.076;12.092;2023-03-30T02:06:21;28.33;;;20.48;;
46457;SDS011;32155;54.076;12.092;2023-03-30T02:08:53;27.63;;;19.63;;
46457;SDS011;32155;54.076;12.092;2023-03-30T02:11:23;29.23;;;19.98;;
46457;SDS011;32155;54.076;12.092;2023-03-30T02:13:52;24.77;;;18.63;;
46457;SDS011;32155;54.076;12.092;2023-03-30T02:19:09;23.80;;;19.58;;
46457;SDS011;32155;54.076;12.092;2023-03-30T02:21:37;28.23;;;20.35;;
46457;SDS011;32155;54.076;12.092;2023-03-30T02:24:04;26.15;;;19.73;;
46457;SDS011;32155;54.076;12.092;2023-03-30T02:26:34;27.40;;;20.02;;
46457;SDS011;32155;54.076;12.092;2023-03-30T02:29:00;28.83;;;20.90;;
46457;SDS011;32155;54.076;12.092;2023-03-30T02:31:26;28.77;;;20.33;;
46457;SDS011;32155;54.076;12.092;2023-03-30T02:34:04;26.75;;;20.25;;
46457;SDS011;32155;54.076;12.092;2023-03-30T02:42:39;26.55;;;21.15;;
46457;SDS011;32155;54.076;12.092;2023-03-30T02:48:17;29.80;;;21.70;;
46457;SDS011;32155;54.076;12.092;2023-03-30T02:56:54;28.58;;;21.80;;
46457;SDS011;32155;54.076;12.092;2023-03-30T02:59:36;32.92;;;23.55;;
46457;SDS011;32155;54.076;12.092;2023-03-30T03:02:20;29.10;;;23.00;;
46457;SDS011;32155;54.076;12.092;2023-03-30T03:04:52;35.88;;;23.30;;
46457;SDS011;32155;54.076;12.092;2023-03-30T03:07:19;31.83;;;23.10;;
46457;SDS011;32155;54.076;12.092;2023-03-30T03:09:45;31.73;;;23.40;;
46457;SDS011;32155;54.076;12.092;2023-03-30T03:12:14;31.27;;;23.27;;
46457;SDS011;32155;54.076;12.092;2023-03-30T03:14:41;36.75;;;24.63;;
46457;SDS011;32155;54.076;12.092;2023-03-30T03:17:09;31.02;;;24.55;;
46457;SDS011;32155;54.076;12.092;2023-03-30T03:19:37;34.60;;;24.80;;
46457;SDS011;32155;54.076;12.092;2023-03-30T03:22:03;33.92;;;24.85;;
46457;SDS011;32155;54.076;12.092;2023-03-30T03:24:28;33.53;;;24.17;;
46457;SDS011;32155;54.076;12.092;2023-03-30T03:26:57;34.42;;;24.85;;
46457;SDS011;32155;54.076;12.092;2023-03-30T03:29:23;33.70;;;23.85;;
46457;SDS011;32155;54.076;12.092;2023-03-30T03:31:51;39.72;;;23.85;;
46457;SDS011;32155;54.076;12.092;2023-03-30T03:34:19;33.20;;;23.75;;
46457;SDS011;32155;54.076;12.092;2023-03-30T03:36:44;33.17;;;24.10;;
46457;SDS011;32155;54.076;12.092;2023-03-30T03:39:12;34.15;;;23.80;;
46457;SDS011;32155;54.076;12.092;2023-03-30T03:41:40;32.80;;;23.35;;
46457;SDS011;32155;54.076;12.092;2023-03-30T03:44:17;33.03;;;23.63;;
46457;SDS011;32155;54.076;12.092;2023-03-30T03:46:43;34.58;;;23.55;;
46457;SDS011;32155;54.076;12.092;2023-03-30T03:49:08;28.88;;;22.67;;
46457;SDS011;32155;54.076;12.092;2023-03-30T03:51:41;36.60;;;24.58;;
46457;SDS011;32155;54.076;12.092;2023-03-30T03:54:06;35.40;;;23.45;;
46457;SDS011;32155;54.076;12.092;2023-03-30T03:56:32;42.38;;;23.60;;
46457;SDS011;32155;54.076;12.092;2023-03-30T03:58:57;34.85;;;22.27;;
46457;SDS011;32155;54.076;12.092;2023-03-30T04:01:27;30.50;;;21.95;;
46457;SDS011;32155;54.076;12.092;2023-03-30T04:03:54;32.80;;;22.60;;
46457;SDS011;32155;54.076;12.092;2023-03-30T04:06:19;32.65;;;22.38;;
46457;SDS011;32155;54.076;12.092;2023-03-30T04:08:45;33.95;;;22.15;;
46457;SDS011;32155;54.076;12.092;2023-03-30T04:11:11;30.98;;;22.15;;
46457;SDS011;32155;54.076;12.092;2023-03-30T04:13:37;30.23;;;22.42;;
46457;SDS011;32155;54.076;12.092;2023-03-30T04:16:04;33.53;;;23.05;;
46457;SDS011;32155;54.076;12.092;2023-03-30T04:18:30;31.23;;;21.77;;
46457;SDS011;32155;54.076;12.092;2023-03-30T04:21:05;31.50;;;22.42;;
46457;SDS011;32155;54.076;12.092;2023-03-30T04:23:31;33.17;;;21.30;;
46457;SDS011;32155;54.076;12.092;2023-03-30T04:26:00;30.15;;;21.17;;
46457;SDS011;32155;54.076;12.092;2023-03-30T04:28:27;30.98;;;21.60;;
46457;SDS011;32155;54.076;12.092;2023-03-30T04:31:01;28.33;;;21.83;;
46457;SDS011;32155;54.076;12.092;2023-03-30T04:33:29;29.63;;;21.15;;
46457;SDS011;32155;54.076;12.092;2023-03-30T04:35:58;34.50;;;21.50;;
46457;SDS011;32155;54.076;12.092;2023-03-30T04:38:27;35.38;;;23.05;;
46457;SDS011;32155;54.076;12.092;2023-03-30T04:40:54;31.40;;;22.48;;
46457;SDS011;32155;54.076;12.092;2023-03-30T04:43:24;30.13;;;20.77;;
46457;SDS011;32155;54.076;12.092;2023-03-30T04:45:53;31.13;;;22.00;;
46457;SDS011;32155;54.076;12.092;2023-03-30T04:48:20;34.22;;;23.85;;
46457;SDS011;32155;54.076;12.092;2023-03-30T04:50:48;37.65;;;24.23;;
46457;SDS011;32155;54.076;12.092;2023-03-30T04:53:15;33.53;;;21.98;;
46457;SDS011;32155;54.076;12.092;2023-03-30T04:55:41;35.53;;;22.13;;
46457;SDS011;32155;54.076;12.092;2023-03-30T04:58:14;38.03;;;22.98;;
46457;SDS011;32155;54.076;12.092;2023-03-30T05:00:39;32.13;;;22.33;;
46457;SDS011;32155;54.076;12.092;2023-03-30T05:03:05;37.65;;;23.20;;
46457;SDS011;32155;54.076;12.092;2023-03-30T05:05:34;33.08;;;21.80;;
46457;SDS011;32155;54.076;12.092;2023-03-30T05:08:02;32.85;;;22.50;;
46457;SDS011;32155;54.076;12.092;2023-03-30T05:10:28;32.30;;;23.17;;
46457;SDS011;32155;54.076;12.092;2023-03-30T05:13:02;34.08;;;23.38;;
46457;SDS011;32155;54.076;12.092;2023-03-30T05:15:28;32.60;;;22.05;;
46457;SDS011;32155;54.076;12.092;2023-03-30T05:17:53;32.35;;;21.77;;
46457;SDS011;32155;54.076;12.092;2023-03-30T05:20:21;34.42;;;22.88;;
46457;SDS011;32155;54.076;12.092;2023-03-30T05:22:47;33.75;;;21.67;;
46457;SDS011;32155;54.076;12.092;2023-03-30T05:25:14;32.55;;;21.13;;
46457;SDS011;32155;54.076;12.092;2023-03-30T05:27:40;34.45;;;20.67;;
46457;SDS011;32155;54.076;12.092;2023-03-30T05:30:08;30.25;;;21.08;;
46457;SDS011;32155;54.076;12.092;2023-03-30T05:32:34;37.50;;;23.15;;
46457;SDS011;32155;54.076;12.092;2023-03-30T05:35:00;33.40;;;21.83;;
46457;SDS011;32155;54.076;12.092;2023-03-30T05:37:25;31.35;;;21.67;;
46457;SDS011;32155;54.076;12.092;2023-03-30T05:39:51;29.95;;;20.25;;
46457;SDS011;32155;54.076;12.092;2023-03-30T05:42:17;30.95;;;21.30;;
46457;SDS011;32155;54.076;12.092;2023-03-30T05:44:43;29.42;;;19.65;;
46457;SDS011;32155;54.076;12.092;2023-03-30T05:47:12;35.78;;;21.08;;
46457;SDS011;32155;54.076;12.092;2023-03-30T05:49:37;29.75;;;19.92;;
46457;SDS011;32155;54.076;12.092;2023-03-30T05:52:03;33.95;;;19.95;;
46457;SDS011;32155;54.076;12.092;2023-03-30T05:54:29;26.75;;;19.10;;
46457;SDS011;32155;54.076;12.092;2023-03-30T05:56:55;31.50;;;20.50;;
46457;SDS011;32155;54.076;12.092;2023-03-30T05:59:20;29.50;;;18.73;;
46457;SDS011;32155;54.076;12.092;2023-03-30T06:01:46;32.15;;;19.77;;
46457;SDS011;32155;54.076;12.092;2023-03-30T06:04:13;32.38;;;18.95;;
46457;SDS011;32155;54.076;12.092;2023-03-30T06:06:40;30.30;;;19.45;;
46457;SDS011;32155;54.076;12.092;2023-03-30T06:09:08;27.25;;;18.50;;
46457;SDS011;32155;54.076;12.092;2023-03-30T06:11:38;26.33;;;17.75;;
46457;SDS011;32155;54.076;12.092;2023-03-30T06:14:04;24.38;;;16.65;;
46457;SDS011;32155;54.076;12.092;2023-03-30T06:16:32;25.35;;;18.17;;
46457;SDS011;32155;54.076;12.092;2023-03-30T06:19:00;28.58;;;17.90;;
46457;SDS011;32155;54.076;12.092;2023-03-30T06:21:27;26.33;;;17.25;;
46457;SDS011;32155;54.076;12.092;2023-03-30T06:23:53;27.60;;;18.42;;
46457;SDS011;32155;54.076;12.092;2023-03-30T06:26:19;24.90;;;17.08;;
46457;SDS011;32155;54.076;12.092;2023-03-30T06:28:44;23.48;;;16.90;;
46457;SDS011;32155;54.076;12.092;2023-03-30T06:31:14;24.48;;;17.17;;
46457;SDS011;32155;54.076;12.092;2023-03-30T06:33:40;27.58;;;16.63;;
46457;SDS011;32155;54.076;12.092;2023-03-30T06:36:08;26.42;;;16.90;;
46457;SDS011;32155;54.076;12.092;2023-03-30T06:38:35;23.23;;;15.70;;
46457;SDS011;32155;54.076;12.092;2023-03-30T06:41:05;24.60;;;16.52;;
46457;SDS011;32155;54.076;12.092;2023-03-30T06:43:45;22.45;;;15.13;;
46457;SDS011;32155;54.076;12.092;2023-03-30T06:46:10;21.92;;;16.48;;
46457;SDS011;32155;54.076;12.092;2023-03-30T06:48:36;19.90;;;14.52;;
46457;SDS011;32155;54.076;12.092;2023-03-30T06:51:02;23.67;;;15.25;;
46457;SDS011;32155;54.076;12.092;2023-03-30T06:53:28;20.13;;;14.80;;
46457;SDS011;32155;54.076;12.092;2023-03-30T06:55:54;20.88;;;14.63;;
46457;SDS011;32155;54.076;12.092;2023-03-30T06:58:21;18.38;;;14.10;;
46457;SDS011;32155;54.076;12.092;2023-03-30T07:00:50;19.77;;;14.27;;
46457;SDS011;32155;54.076;12.092;2023-03-30T07:03:16;21.38;;;14.48;;
46457;SDS011;32155;54.076;12.092;2023-03-30T07:05:45;19.52;;;14.35;;
46457;SDS011;32155;54.076;12.092;2023-03-30T07:08:12;22.33;;;14.82;;
46457;SDS011;32155;54.076;12.092;2023-03-30T07:10:38;20.05;;;14.43;;
46457;SDS011;32155;54.076;12.092;2023-03-30T07:13:07;20.17;;;15.00;;
46457;SDS011;32155;54.076;12.092;2023-03-30T07:15:33;21.80;;;13.98;;
46457;SDS011;32155;54.076;12.092;2023-03-30T07:17:59;27.98;;;15.55;;
46457;SDS011;32155;54.076;12.092;2023-03-30T07:20:27;22.00;;;14.30;;
46457;SDS011;32155;54.076;12.092;2023-03-30T07:22:52;20.35;;;13.80;;
46457;SDS011;32155;54.076;12.092;2023-03-30T07:25:20;18.08;;;13.50;;
46457;SDS011;32155;54.076;12.092;2023-03-30T07:27:46;20.40;;;13.70;;
46457;SDS011;32155;54.076;12.092;2023-03-30T07:30:12;16.30;;;12.75;;
46457;SDS011;32155;54.076;12.092;2023-03-30T07:32:38;22.88;;;13.95;;
46457;SDS011;32155;54.076;12.092;2023-03-30T07:35:05;20.02;;;12.75;;
46457;SDS011;32155;54.076;12.092;2023-03-30T07:37:32;20.02;;;11.90;;
46457;SDS011;32155;54.076;12.092;2023-03-30T07:40:06;17.85;;;12.50;;
46457;SDS011;32155;54.076;12.092;2023-03-30T07:42:33;18.52;;;12.52;;
46457;SDS011;32155;54.076;12.092;2023-03-30T07:44:58;22.52;;;13.20;;
46457;SDS011;32155;54.076;12.092;2023-03-30T07:47:24;18.10;;;12.75;;
46457;SDS011;32155;54.076;12.092;2023-03-30T07:49:50;18.85;;;12.07;;
46457;SDS011;32155;54.076;12.092;2023-03-30T07:52:16;18.25;;;12.27;;
46457;SDS011;32155;54.076;12.092;2023-03-30T07:54:42;17.27;;;11.23;;
46457;SDS011;32155;54.076;12.092;2023-03-30T07:57:10;18.00;;;11.45;;
46457;SDS011;32155;54.076;12.092;2023-03-30T07:59:39;16.70;;;11.77;;
46457;SDS011;32155;54.076;12.092;2023-03-30T08:02:05;17.70;;;12.20;;
46457;SDS011;32155;54.076;12.092;2023-03-30T08:04:31;18.08;;;11.93;;
46457;SDS011;32155;54.076;12.092;2023-03-30T08:06:57;14.40;;;11.15;;
46457;SDS011;32155;54.076;12.092;2023-03-30T08:09:22;18.42;;;10.90;;
46457;SDS011;32155;54.076;12.092;2023-03-30T08:11:48;17.30;;;10.88;;
46457;SDS011;32155;54.076;12.092;2023-03-30T08:14:14;15.00;;;11.15;;
46457;SDS011;32155;54.076;12.092;2023-03-30T08:16:40;15.68;;;10.43;;
46457;SDS011;32155;54.076;12.092;2023-03-30T08:19:08;14.40;;;10.77;;
46457;SDS011;32155;54.076;12.092;2023-03-30T08:21:34;13.25;;;10.73;;
46457;SDS011;32155;54.076;12.092;2023-03-30T08:24:15;14.80;;;9.60;;
46457;SDS011;32155;54.076;12.092;2023-03-30T08:26:41;16.65;;;10.18;;
46457;SDS011;32155;54.076;12.092;2023-03-30T08:29:09;14.80;;;9.85;;
46457;SDS011;32155;54.076;12.092;2023-03-30T08:31:35;16.70;;;9.70;;
46457;SDS011;32155;54.076;12.092;2023-03-30T08:34:01;11.43;;;8.85;;
46457;SDS011;32155;54.076;12.092;2023-03-30T08:36:28;12.35;;;8.48;;
46457;SDS011;32155;54.076;12.092;2023-03-30T08:38:57;14.50;;;9.15;;
46457;SDS011;32155;54.076;12.092;2023-03-30T08:44:01;10.73;;;8.77;;
46457;SDS011;32155;54.076;12.092;2023-03-30T08:46:35;10.13;;;8.07;;
46457;SDS011;32155;54.076;12.092;2023-03-30T08:49:03;14.55;;;9.13;;
46457;SDS011;32155;54.076;12.092;2023-03-30T08:51:35;14.48;;;7.85;;
46457;SDS011;32155;54.076;12.092;2023-03-30T08:54:03;10.73;;;7.95;;
46457;SDS011;32155;54.076;12.092;2023-03-30T08:56:34;13.15;;;8.68;;
46457;SDS011;32155;54.076;12.092;2023-03-30T09:01:57;12.52;;;8.70;;
46457;SDS011;32155;54.076;12.092;2023-03-30T09:04:39;11.60;;;8.55;;
46457;SDS011;32155;54.076;12.092;2023-03-30T09:07:16;14.32;;;8.32;;
46457;SDS011;32155;54.076;12.092;2023-03-30T09:09:47;10.57;;;7.82;;
46457;SDS011;32155;54.076;12.092;2023-03-30T09:15:13;12.38;;;7.28;;
46457;SDS011;32155;54.076;12.092;2023-03-30T09:20:34;10.30;;;6.95;;
46457;SDS011;32155;54.076;12.092;2023-03-30T09:23:02;12.32;;;6.45;;
46457;SDS011;32155;54.076;12.092;2023-03-30T09:31:23;7.72;;;6.50;;
46457;SDS011;32155;54.076;12.092;2023-03-30T09:39:46;12.05;;;7.13;;
46457;SDS011;32155;54.076;12.092;2023-03-30T09:42:22;14.50;;;8.18;;
46457;SDS011;32155;54.076;12.092;2023-03-30T09:47:39;13.18;;;7.38;;
46457;SDS011;32155;54.076;12.092;2023-03-30T09:50:07;11.18;;;7.40;;
46457;SDS011;32155;54.076;12.092;2023-03-30T09:52:39;14.77;;;7.28;;
46457;SDS011;32155;54.076;12.092;2023-03-30T09:57:53;12.88;;;7.95;;
46457;SDS011;32155;54.076;12.092;2023-03-30T10:00:35;15.10;;;6.78;;
46457;SDS011;32155;54.076;12.092;2023-03-30T10:03:05;19.08;;;7.25;;
46457;SDS011;32155;54.076;12.092;2023-03-30T10:05:34;12.95;;;7.50;;
46457;SDS011;32155;54.076;12.092;2023-03-30T10:08:11;14.82;;;6.85;;
46457;SDS011;32155;54.076;12.092;2023-03-30T10:10:52;9.70;;;6.68;;
46457;SDS011;32155;54.076;12.092;2023-03-30T10:13:18;15.35;;;6.60;;
46457;SDS011;32155;54.076;12.092;2023-03-30T10:16:02;12.85;;;6.93;;
46457;SDS011;32155;54.076;12.092;2023-03-30T10:18:42;12.50;;;6.43;;
46457;SDS011;32155;54.076;12.092;2023-03-30T10:23:38;11.05;;;6.43;;
46457;SDS011;32155;54.076;12.092;2023-03-30T10:26:06;11.23;;;6.15;;
46457;SDS011;32155;54.076;12.092;2023-03-30T10:31:29;12.00;;;5.63;;
46457;SDS011;32155;54.076;12.092;2023-03-30T10:33:59;14.55;;;5.78;;
46457;SDS011;32155;54.076;12.092;2023-03-30T10:36:30;12.40;;;5.72;;
46457;SDS011;32155;54.076;12.092;2023-03-30T10:41:56;10.90;;;5.80;;
46457;SDS011;32155;54.076;12.092;2023-03-30T10:58:19;13.57;;;4.60;;
46457;SDS011;32155;54.076;12.092;2023-03-30T11:03:42;9.93;;;5.22;;
46457;SDS011;32155;54.076;12.092;2023-03-30T11:06:13;11.80;;;4.70;;
46457;SDS011;32155;54.076;12.092;2023-03-30T11:08:45;12.68;;;4.30;;
46457;SDS011;32155;54.076;12.092;2023-03-30T11:11:21;8.50;;;5.03;;
46457;SDS011;32155;54.076;12.092;2023-03-30T11:13:54;25.85;;;6.13;;
46457;SDS011;32155;54.076;12.092;2023-03-30T11:16:41;12.45;;;4.78;;
46457;SDS011;32155;54.076;12.092;2023-03-30T11:22:02;10.93;;;4.05;;
46457;SDS011;32155;54.076;12.092;2023-03-30T11:24:40;14.43;;;4.38;;
46457;SDS011;32155;54.076;12.092;2023-03-30T11:27:21;7.78;;;3.72;;
46457;SDS011;32155;54.076;12.092;2023-03-30T11:30:08;7.85;;;3.70;;
46457;SDS011;32155;54.076;12.092;2023-03-30T11:41:14;8.52;;;3.63;;
46457;SDS011;32155;54.076;12.092;2023-03-30T11:44:00;8.95;;;3.90;;
46457;SDS011;32155;54.076;12.092;2023-03-30T11:51:45;15.35;;;3.92;;
46457;SDS011;32155;54.076;12.092;2023-03-30T11:57:43;16.42;;;4.70;;
46457;SDS011;32155;54.076;12.092;2023-03-30T12:03:07;20.15;;;6.40;;
46457;SDS011;32155;54.076;12.092;2023-03-30T12:05:55;16.25;;;5.40;;
46457;SDS011;32155;54.076;12.092;2023-03-30T12:14:00;10.05;;;3.85;;
46457;SDS011;32155;54.076;12.092;2023-03-30T12:16:36;17.35;;;6.65;;
46457;SDS011;32155;54.076;12.092;2023-03-30T12:19:10;10.32;;;4.03;;
46457;SDS011;32155;54.076;12.092;2023-03-30T12:21:45;11.93;;;4.38;;
46457;SDS011;32155;54.076;12.092;2023-03-30T12:27:17;8.77;;;4.72;;
46457;SDS011;32155;54.076;12.092;2023-03-30T12:29:50;41.88;;;10.38;;
46457;SDS011;32155;54.076;12.092;2023-03-30T12:32:20;16.13;;;6.75;;
46457;SDS011;32155;54.076;12.092;2023-03-30T12:34:49;8.30;;;4.57;;
46457;SDS011;32155;54.076;12.092;2023-03-30T12:38:18;9.80;;;5.65;;
46457;SDS011;32155;54.076;12.092;2023-03-30T12:40:51;15.70;;;6.47;;
46457;SDS011;32155;54.076;12.092;2023-03-30T12:45:53;17.80;;;7.05;;
46457;SDS011;32155;54.076;12.092;2023-03-30T13:00:11;15.45;;;6.70;;
46457;SDS011;32155;54.076;12.092;2023-03-30T13:03:53;11.13;;;6.05;;
46457;SDS011;32155;54.076;12.092;2023-03-30T13:06:20;13.00;;;5.28;;
46457;SDS011;32155;54.076;12.092;2023-03-30T13:08:54;13.73;;;5.70;;
46457;SDS011;32155;54.076;12.092;2023-03-30T13:11:22;13.15;;;5.05;;
46457;SDS011;32155;54.076;12.092;2023-03-30T13:14:13;7.55;;;4.43;;
46457;SDS011;32155;54.076;12.092;2023-03-30T13:29:38;12.07;;;4.72;;
46457;SDS011;32155;54.076;12.092;2023-03-30T13:35:03;7.95;;;4.55;;
46457;SDS011;32155;54.076;12.092;2023-03-30T13:37:52;10.23;;;4.05;;
46457;SDS011;32155;54.076;12.092;2023-03-30T13:40:29;13.38;;;3.88;;
46457;SDS011;32155;54.076;12.092;2023-03-30T13:51:50;12.30;;;4.35;;
46457;SDS011;32155;54.076;12.092;2023-03-30T13:54:31;8.65;;;2.90;;
46457;SDS011;32155;54.076;12.092;2023-03-30T14:00:34;11.77;;;2.90;;
46457;SDS011;32155;54.076;12.092;2023-03-30T14:06:03;8.38;;;2.40;;
46457;SDS011;32155;54.076;12.092;2023-03-30T14:08:42;13.55;;;3.20;;
46457;SDS011;32155;54.076;12.092;2023-03-30T14:11:34;12.20;;;2.70;;
46457;SDS011;32155;54.076;12.092;2023-03-30T14:14:03;7.15;;;2.50;;
46457;SDS011;32155;54.076;12.092;2023-03-30T14:16:31;8.90;;;2.28;;
46457;SDS011;32155;54.076;12.092;2023-03-30T14:19:42;8.93;;;2.45;;
46457;SDS011;32155;54.076;12.092;2023-03-30T14:21:54;8.75;;;2.17;;
46457;SDS011;32155;54.076;12.092;2023-03-30T14:24:31;8.85;;;2.17;;
46457;SDS011;32155;54.076;12.092;2023-03-30T14:27:04;6.50;;;2.20;;
46457;SDS011;32155;54.076;12.092;2023-03-30T14:29:42;9.15;;;2.38;;
46457;SDS011;32155;54.076;12.092;2023-03-30T14:32:10;11.43;;;2.70;;
46457;SDS011;32155;54.076;12.092;2023-03-30T14:34:38;7.38;;;2.35;;
46457;SDS011;32155;54.076;12.092;2023-03-30T14:37:11;10.10;;;2.15;;
46457;SDS011;32155;54.076;12.092;2023-03-30T14:39:41;10.80;;;2.17;;
46457;SDS011;32155;54.076;12.092;2023-03-30T14:42:19;10.10;;;2.13;;
46457;SDS011;32155;54.076;12.092;2023-03-30T14:44:48;15.07;;;2.45;;
46457;SDS011;32155;54.076;12.092;2023-03-30T14:47:18;17.23;;;3.22;;
46457;SDS011;32155;54.076;12.092;2023-03-30T14:49:52;14.80;;;4.43;;
46457;SDS011;32155;54.076;12.092;2023-03-30T14:52:29;8.48;;;3.00;;
46457;SDS011;32155;54.076;12.092;2023-03-30T14:55:02;11.50;;;2.60;;
46457;SDS011;32155;54.076;12.092;2023-03-30T14:57:32;10.20;;;2.33;;
46457;SDS011;32155;54.076;12.092;2023-03-30T15:00:02;11.40;;;2.50;;
46457;SDS011;32155;54.076;12.092;2023-03-30T15:02:40;17.02;;;2.72;;
46457;SDS011;32155;54.076;12.092;2023-03-30T15:05:07;11.35;;;2.53;;
46457;SDS011;32155;54.076;12.092;2023-03-30T15:07:34;16.20;;;2.97;;
46457;SDS011;32155;54.076;12.092;2023-03-30T15:10:03;13.48;;;2.90;;
46457;SDS011;32155;54.076;12.092;2023-03-30T15:12:33;19.15;;;3.42;;
46457;SDS011;32155;54.076;12.092;2023-03-30T15:15:02;15.93;;;3.50;;
46457;SDS011;32155;54.076;12.092;2023-03-30T15:17:31;11.18;;;2.33;;
46457;SDS011;32155;54.076;12.092;2023-03-30T15:20:00;14.07;;;3.03;;
46457;SDS011;32155;54.076;12.092;2023-03-30T15:22:36;11.82;;;2.42;;
46457;SDS011;32155;54.076;12.092;2023-03-30T15:25:10;15.43;;;3.25;;
46457;SDS011;32155;54.076;12.092;2023-03-30T15:27:38;11.98;;;2.90;;
46457;SDS011;32155;54.076;12.092;2023-03-30T15:30:25;13.57;;;2.90;;
46457;SDS011;32155;54.076;12.092;2023-03-30T15:32:59;15.13;;;3.13;;
46457;SDS011;32155;54.076;12.092;2023-03-30T15:35:26;21.05;;;3.17;;
46457;SDS011;32155;54.076;12.092;2023-03-30T15:37:58;13.90;;;2.78;;
46457;SDS011;32155;54.076;12.092;2023-03-30T15:40:39;14.88;;;3.55;;
46457;SDS011;32155;54.076;12.092;2023-03-30T15:45:44;11.68;;;2.88;;
46457;SDS011;32155;54.076;12.092;2023-03-30T15:48:13;19.08;;;3.17;;
46457;SDS011;32155;54.076;12.092;2023-03-30T15:50:43;17.58;;;3.45;;
46457;SDS011;32155;54.076;12.092;2023-03-30T15:53:16;12.25;;;2.92;;
46457;SDS011;32155;54.076;12.092;2023-03-30T15:55:47;15.70;;;3.03;;
46457;SDS011;32155;54.076;12.092;2023-03-30T15:58:18;14.73;;;3.47;;
46457;SDS011;32155;54.076;12.092;2023-03-30T16:00:50;15.23;;;2.95;;
46457;SDS011;32155;54.076;12.092;2023-03-30T16:05:57;14.57;;;2.85;;
46457;SDS011;32155;54.076;12.092;2023-03-30T16:08:22;12.48;;;3.20;;
46457;SDS011;32155;54.076;12.092;2023-03-30T16:10:48;16.63;;;2.70;;
46457;SDS011;32155;54.076;12.092;2023-03-30T16:13:16;19.00;;;3.60;;
46457;SDS011;32155;54.076;12.092;2023-03-30T16:15:42;20.08;;;2.90;;
46457;SDS011;32155;54.076;12.092;2023-03-30T16:18:09;16.40;;;2.80;;
46457;SDS011;32155;54.076;12.092;2023-03-30T16:20:44;12.63;;;2.63;;
46457;SDS011;32155;54.076;12.092;2023-03-30T16:23:10;16.55;;;2.70;;
46457;SDS011;32155;54.076;12.092;2023-03-30T16:25:36;11.57;;;1.98;;
46457;SDS011;32155;54.076;12.092;2023-03-30T16:28:02;10.20;;;1.75;;
46457;SDS011;32155;54.076;12.092;2023-03-30T16:30:31;10.25;;;2.67;;
46457;SDS011;32155;54.076;12.092;2023-03-30T16:33:00;14.43;;;2.47;;
46457;SDS011;32155;54.076;12.092;2023-03-30T16:35:26;8.35;;;2.10;;
46457;SDS011;32155;54.076;12.092;2023-03-30T16:37:52;9.50;;;2.55;;
46457;SDS011;32155;54.076;12.092;2023-03-30T16:40:29;14.25;;;1.90;;
46457;SDS011;32155;54.076;12.092;2023-03-30T16:42:58;9.48;;;2.08;;
46457;SDS011;32155;54.076;12.092;2023-03-30T16:45:24;13.57;;;2.70;;
46457;SDS011;32155;54.076;12.092;2023-03-30T16:47:51;11.27;;;2.85;;
46457;SDS011;32155;54.076;12.092;2023-03-30T16:53:07;14.00;;;2.87;;
46457;SDS011;32155;54.076;12.092;2023-03-30T16:55:39;10.30;;;1.95;;
46457;SDS011;32155;54.076;12.092;2023-03-30T16:58:05;7.05;;;1.55;;
46457;SDS011;32155;54.076;12.092;2023-03-30T17:00:35;7.47;;;1.20;;
46457;SDS011;32155;54.076;12.092;2023-03-30T17:03:04;9.68;;;2.05;;
46457;SDS011;32155;54.076;12.092;2023-03-30T17:05:33;10.00;;;2.10;;
46457;SDS011;32155;54.076;12.092;2023-03-30T17:08:03;12.18;;;2.20;;
46457;SDS011;32155;54.076;12.092;2023-03-30T17:10:31;8.80;;;2.17;;
46457;SDS011;32155;54.076;12.092;2023-03-30T17:12:58;13.38;;;2.67;;
46457;SDS011;32155;54.076;12.092;2023-03-30T17:15:25;12.27;;;2.30;;
46457;SDS011;32155;54.076;12.092;2023-03-30T17:17:51;13.68;;;2.30;;
46457;SDS011;32155;54.076;12.092;2023-03-30T17:23:03;14.67;;;2.67;;
46457;SDS011;32155;54.076;12.092;2023-03-30T17:25:29;15.13;;;2.40;;
46457;SDS011;32155;54.076;12.092;2023-03-30T17:27:56;10.60;;;2.50;;
46457;SDS011;32155;54.076;12.092;2023-03-30T17:30:23;14.90;;;2.60;;
46457;SDS011;32155;54.076;12.092;2023-03-30T17:32:51;10.98;;;2.55;;
46457;SDS011;32155;54.076;12.092;2023-03-30T17:35:21;18.80;;;2.83;;
46457;SDS011;32155;54.076;12.092;2023-03-30T17:37:47;19.20;;;2.85;;
46457;SDS011;32155;54.076;12.092;2023-03-30T17:40:20;22.08;;;3.13;;